Flight Track Log - Related Links

Times and Time Zones

All times are in EDT time to prevent confusion due to time zone crossing. See the AAY894 flight status page for this flight to view local times or setup timezone preferences in your user account.

Time Position Orientation Groundspeed Altitude Reporting Facility
EDT Latitude Longitude Course Direction KTS MPH feet Rate Location/Type
Thu 09:08:04 AM 27.9333 -82.7000 16° North 184 212 800  Level Tampa TRACON
Thu 09:09:04 AM 27.9833 -82.6833 16° North 214 246 2,200 2,089 Climbing Tampa TRACON
Thu 09:12:57 AM 28.2706 -82.6050 14° North 296 341 11,000 2,212 Climbing Jacksonville Center
Thu 09:13:57 AM 28.3833 -82.5811 11° North 353 406 13,000 2,150 Climbing Jacksonville Center
Thu 09:14:57 AM 28.4772 -82.5856 358° North 354 407 15,300 2,050 Climbing Jacksonville Center
Thu 09:15:57 AM 28.5858 -82.5969 355° North 375 432 17,100 1,900 Climbing Jacksonville Center
Thu 09:16:57 AM 28.7172 -82.6014 358° North 406 467 19,100 1,800 Climbing Jacksonville Center
Thu 09:17:57 AM 28.8383 -82.6081 357° North 417 480 20,700 1,500 Climbing Jacksonville Center
Thu 09:18:57 AM 28.9614 -82.6125 358° North 429 494 22,100 1,550 Climbing Jacksonville Center
Thu 09:19:57 AM 29.0908 -82.6144 359° North 441 507 23,800 1,800 Climbing Jacksonville Center
Thu 09:20:57 AM 29.2203 -82.6167 359° North 454 522 25,700 1,750 Climbing Jacksonville Center
Thu 09:21:57 AM 29.3517 -82.6161 360° North 461 531 27,300 1,700 Climbing Jacksonville Center
Thu 09:22:57 AM 29.4769 -82.6158 360° North 456 525 29,100 1,600 Climbing Jacksonville Center
Thu 09:23:57 AM 29.6022 -82.6108 North 451 519 30,500 950 Climbing Jacksonville Center
Thu 09:24:57 AM 29.7275 -82.6008 North 451 519 31,000 200 Climbing Jacksonville Center
Thu 09:25:57 AM 29.8569 -82.5933 North 456 525 30,900 -50 Descending Jacksonville Center
Thu 09:26:57 AM 29.9842 -82.5833 North 456 525 30,900  Level Jacksonville Center
Thu 09:27:57 AM 30.0969 -82.5806 North 456 525 30,900  Level Jacksonville Center
Thu 09:28:57 AM 30.2222 -82.5728 North 456 525 30,900 50 Level Jacksonville Center
Thu 09:29:57 AM 30.3497 -82.5581 North 456 525 31,000  Climbing Jacksonville Center
Thu 09:30:57 AM 30.4769 -82.5406 North 461 531 30,900 -50 Descending Jacksonville Center
Thu 09:31:57 AM 30.6042 -82.5258 North 461 531 30,900  Level Jacksonville Center
Thu 09:32:57 AM 30.7336 -82.5131 North 461 531 30,900  Level Jacksonville Center
Thu 09:33:57 AM 30.8631 -82.4933 North 461 531 30,900  Level Jacksonville Center
Thu 09:34:57 AM 30.9903 -82.4783 North 461 531 30,900  Level Jacksonville Center
Thu 09:35:57 AM 31.1178 -82.4631 North 461 531 30,900  Level Jacksonville Center
Thu 09:36:57 AM 31.2450 -82.4478 North 461 531 30,900 50 Level Jacksonville Center
Thu 09:37:57 AM 31.3847 -82.4253 North 461 531 31,000 50 Climbing Jacksonville Center
Thu 09:38:57 AM 31.5142 -82.4075 North 461 531 31,000  Level Jacksonville Center
Thu 09:39:57 AM 31.6311 -82.3922 North 461 531 31,000  Level Jacksonville Center
Thu 09:41:10 AM 31.7917 -82.3750 North 464 534 31,000  Level Atlanta Center
Thu 09:42:10 AM 31.9208 -82.3578 North 464 534 31,000  Level Atlanta Center
Thu 09:43:10 AM 32.0481 -82.3408 North 464 534 31,000  Level Atlanta Center
Thu 09:44:10 AM 32.1772 -82.3236 North 464 534 31,000 300 Level Atlanta Center
Thu 09:45:10 AM 32.3125 -82.3014 North 459 528 31,600 800 Climbing Atlanta Center
Thu 09:46:10 AM 32.4417 -82.2864 North 459 528 32,600 700 Climbing Atlanta Center
Thu 09:47:10 AM 32.5689 -82.2692 North 459 528 33,000 200 Climbing Atlanta Center
Thu 09:48:10 AM 32.6978 -82.2492 North 459 528 33,000  Level Atlanta Center
Thu 09:49:10 AM 32.8228 -82.2344 North 459 528 33,000  Level Atlanta Center
Thu 09:50:10 AM 32.9519 -82.2169 North 464 534 33,000  Level Atlanta Center
Thu 09:51:10 AM 33.0769 -82.1994 North 464 534 33,000  Level Atlanta Center
Thu 09:52:10 AM 33.2042 -82.1817 North 464 534 33,000  Level Atlanta Center
Thu 09:53:10 AM 33.3311 -82.1642 North 464 534 33,000  Level Atlanta Center
Thu 09:54:10 AM 33.4603 -82.1464 North 464 534 33,000  Level Atlanta Center
Thu 09:55:10 AM 33.5853 -82.1286 North 464 534 33,000  Level Atlanta Center
Thu 09:56:10 AM 33.6997 -82.1136 North 464 534 33,000  Level Atlanta Center
Thu 09:57:10 AM 33.8289 -82.0933 North 464 534 33,000  Level Atlanta Center
Thu 09:58:10 AM 33.9561 -82.0778 North 464 534 33,000  Level Atlanta Center
Thu 09:59:10 AM 34.0850 -82.0597 North 464 534 33,000  Level Atlanta Center
Thu 10:00:10 AM 34.2122 -82.0442 North 464 534 33,000  Level Atlanta Center
Thu 10:01:10 AM 34.3392 -82.0261 North 464 534 33,000  Level Atlanta Center
Thu 10:02:10 AM 34.4683 -82.0081 North 464 534 33,000  Level Atlanta Center
Thu 10:03:10 AM 34.5953 -81.9922 North 464 534 33,000  Level Atlanta Center
Thu 10:04:10 AM 34.7244 -81.9714 North 464 534 33,000  Level Atlanta Center
Thu 10:05:10 AM 34.8533 -81.9531 North 464 534 33,000  Level Atlanta Center
Thu 10:06:10 AM 34.9806 -81.9397 North 459 528 33,000  Level Atlanta Center
Thu 10:07:10 AM 35.1094 -81.9111 10° North 464 534 33,000  Level Atlanta Center
Thu 10:08:10 AM 35.2361 -81.8747 13° North 464 534 33,000  Level Atlanta Center
Thu 10:09:10 AM 35.3628 -81.8383 13° North 464 534 33,000  Level Atlanta Center
Thu 10:10:10 AM 35.4997 -81.7989 13° North 464 534 33,000  Level Atlanta Center
Thu 10:11:10 AM 35.6283 -81.7622 13° North 469 540 33,000  Level Atlanta Center
Thu 10:12:10 AM 35.7528 -81.7256 13° North 462 532 33,000  Level Atlanta Center
Thu 10:13:10 AM 35.8794 -81.6886 13° North 462 532 33,000  Level Atlanta Center
Thu 10:14:10 AM 36.0039 -81.6517 14° North 462 532 33,000  Level Atlanta Center
Thu 10:15:10 AM 36.1303 -81.6144 13° North 462 532 33,000  Level Atlanta Center
Thu 10:16:10 AM 36.2525 -81.5800 13° North 462 532 33,000  Level Atlanta Center
Thu 10:17:10 AM 36.3769 -81.5453 13° North 462 532 33,000  Level Atlanta Center
Thu 10:18:10 AM 36.5033 -81.5025 15° North 457 526 33,000  Level Atlanta Center
Thu 10:19:10 AM 36.6278 -81.4675 13° North 457 526 33,000  Level Atlanta Center
Thu 10:20:10 AM 36.7561 -81.4269 14° North 462 532 33,000  Level Atlanta Center
Thu 10:21:21 AM 36.9008 -81.3858 13° North 466 536 33,000  Level Indianapolis Center
Thu 10:22:23 AM 37.0339 -81.3478 13° North 467 537 33,000  Level Indianapolis Center
Thu 10:23:25 AM 37.1600 -81.3094 14° North 468 539 33,000  Level Indianapolis Center
Thu 10:24:27 AM 37.2994 -81.2689 13° North 468 539 33,000  Level Indianapolis Center
Thu 10:25:29 AM 37.4244 -81.2322 13° North 468 539 33,000  Level Indianapolis Center
Thu 10:26:31 AM 37.5483 -81.1931 14° North 468 539 33,000  Level Indianapolis Center
Thu 10:27:33 AM 37.6744 -81.1561 13° North 471 542 33,000  Level Indianapolis Center
Thu 10:28:35 AM 37.8236 -81.1111 13° North 471 542 33,000  Level Indianapolis Center
Thu 10:29:37 AM 37.9497 -81.0747 13° North 471 542 33,000  Level Indianapolis Center
Thu 10:30:39 AM 38.0783 -81.0378 13° North 471 542 33,000  Level Indianapolis Center
Thu 10:31:42 AM 38.2067 -81.0006 13° North 471 542 33,000  Level Indianapolis Center
Thu 10:32:44 AM 38.3361 -80.9644 12° North 473 544 33,000  Level Indianapolis Center
Thu 10:33:46 AM 38.4906 -80.9186 13° North 474 545 33,000  Level Indianapolis Center
Thu 10:34:48 AM 38.6194 -80.8794 13° North 474 545 33,000  Level Indianapolis Center
Thu 10:35:50 AM 38.7489 -80.8428 12° North 477 549 33,000  Level Indianapolis Center
Thu 10:36:52 AM 38.8781 -80.8047 13° North 477 549 33,000  Level Indianapolis Center
Thu 10:37:54 AM 39.0083 -80.7653 13° North 478 550 33,000  Level Indianapolis Center
Thu 10:38:56 AM 39.1650 -80.7181 13° North 479 551 33,000  Level Indianapolis Center
Thu 10:39:58 AM 39.2961 -80.6786 13° North 480 552 33,000  Level Indianapolis Center
Thu 10:40:43 AM 39.3833 -80.6536 12° North 480 552 33,000  Level Cleveland Center
Thu 10:41:45 AM 39.5325 -80.6089 13° North 481 554 33,000  Level Cleveland Center
Thu 10:42:47 AM 39.6653 -80.5703 13° North 484 557 33,000  Level Cleveland Center
Thu 10:43:49 AM 39.7969 -80.5294 13° North 483 556 33,000  Level Cleveland Center
Thu 10:44:51 AM 39.9317 -80.4892 13° North 484 557 33,000  Level Cleveland Center
Thu 10:45:53 AM 40.0622 -80.4475 14° North 484 557 33,000  Level Cleveland Center
Thu 10:46:55 AM 40.1931 -80.4075 13° North 483 556 33,000  Level Cleveland Center
Thu 10:47:58 AM 40.3472 -80.3581 14° North 485 558 33,000 -816 Level Cleveland Center
Thu 10:49:00 AM 40.4808 -80.3169 13° North 485 558 31,300 -968 Descending Cleveland Center
Thu 10:50:02 AM 40.6125 -80.2781 13° North 485 558 31,000 -145 Descending Cleveland Center
Thu 10:51:04 AM 40.7431 -80.2367 14° North 483 556 31,000  Level Cleveland Center
Thu 10:52:06 AM 40.8719 -80.1767 19° North 486 559 31,000  Level Cleveland Center
Thu 10:53:08 AM 40.9933 -80.0897 28° Northeast 493 567 31,000 -194 Level Cleveland Center
Thu 10:54:10 AM 41.1361 -79.9878 28° Northeast 495 570 30,600 -968 Descending Cleveland Center
Thu 10:55:12 AM 41.2567 -79.9000 29° Northeast 495 570 29,000 -1,694 Descending Cleveland Center
Thu 10:56:14 AM 41.3744 -79.8139 29° Northeast 490 564 27,100 -1,968 Descending Cleveland Center
Thu 10:57:17 AM 41.4956 -79.7261 28° Northeast 490 564 24,900 -1,488 Descending Cleveland Center
Thu 10:58:19 AM 41.6147 -79.6378 29° Northeast 490 564 24,000 -435 Descending Cleveland Center
Thu 10:59:21 AM 41.7358 -79.5481 29° Northeast 494 568 24,000  Level Cleveland Center
Thu 11:00:23 AM 41.8794 -79.4419 29° Northeast 492 566 24,000  Level Cleveland Center
Thu 11:01:25 AM 41.9994 -79.3528 29° Northeast 493 567 24,000 -387 Level Cleveland Center
Thu 11:02:27 AM 42.1264 -79.2975 18° North 479 551 23,200 -1,452 Descending Cleveland Center
Thu 11:03:29 AM 42.2422 -79.2581 14° North 430 495 21,000 -2,371 Descending Cleveland Center
Thu 11:04:31 AM 42.3481 -79.2197 15° North 397 457 18,300 -2,758 Descending Cleveland Center
Thu 11:05:33 AM 42.4631 -79.1772 15° North 379 436 15,300 -3,024 Descending Cleveland Center
Thu 11:06:36 AM 42.5628 -79.1394 16° North 377 434 12,000 -2,112 Descending Cleveland Center
Thu 11:07:38 AM 42.6611 -79.1042 15° North 367 422 10,900 -1,016 Descending Cleveland Center
Thu 11:08:40 AM 42.7658 -79.0675 14° North 336 387 9,900 -919 Descending Cleveland Center
Thu 11:09:42 AM 42.8544 -79.0353 15° North 320 368 9,000 -1,161 Descending Cleveland Center
Thu 11:10:44 AM 42.9394 -79.0056 14° North 307 353 7,500 -1,597 Descending Cleveland Center
Thu 11:11:46 AM 43.0133 -78.9789 15° North 292 336 5,700 -1,645 Descending Cleveland Center
Thu 11:12:48 AM 43.0819 -78.9539 15° North 253 291 4,100 -1,306 Descending Cleveland Center
Thu 11:13:50 AM 43.1236 -78.9850 331° Northwest 203 234 3,000 -1,113 Descending Cleveland Center
Thu 11:14:52 AM 43.1019 -79.0192 229° Southwest 165 190 1,800 -919 Descending Cleveland Center
Thu 11:15:54 AM 43.1172 -78.9800 62° Northeast 152 175 1,100 -677 Descending Cleveland Center
Thu 11:17:00 AM 43.1076 -78.9458 90° East  Level Estimated

Login

Don't have an account? Register now (free) for customized features, flight alerts, and more!